Time;durP1;ratioP1;P1;durP2;ratioP2;P2;SDS_P1;SDS_P2;PMS_P1;PMS_P2;Temp;Humidity;BMP_temperature;BMP_pressure;BME280_temperature;BME280_humidity;BME280_pressure;Samples;Min_cycle;Max_cycle;Signal;HPM_P1;HPM_P2
2022/03/22 00:00:55;;;;;;;1.60;1.50;;;12.20;76.60;;;;;;5067762;28;20861;-73
2022/03/22 00:03:24;;;;;;;1.50;1.07;;;12.10;76.40;;;;;;5069509;28;20469;-73
2022/03/22 00:05:51;;;;;;;1.50;1.00;;;12.10;76.60;;;;;;5062561;28;20515;-72
2022/03/22 00:08:18;;;;;;;1.50;1.00;;;12.10;76.60;;;;;;5064626;28;20496;-73
2022/03/22 00:10:45;;;;;;;1.50;1.10;;;12.10;76.60;;;;;;5065192;28;20527;-73
2022/03/22 00:13:12;;;;;;;3.00;2.80;;;12.00;76.70;;;;;;5064809;28;20462;-73
2022/03/22 00:15:39;;;;;;;1.50;1.00;;;12.00;76.70;;;;;;5059927;28;20874;-73
2022/03/22 00:18:08;;;;;;;1.50;1.00;;;12.00;76.80;;;;;;5046323;28;20470;-73
2022/03/22 00:20:34;;;;;;;1.50;1.10;;;12.00;76.70;;;;;;5066993;28;20548;-73
2022/03/22 00:23:01;;;;;;;1.50;1.20;;;11.90;76.70;;;;;;5061011;28;20458;-72
2022/03/22 00:25:28;;;;;;;1.60;1.43;;;11.90;76.70;;;;;;5059155;28;20457;-73
2022/03/22 00:27:56;;;;;;;1.50;1.10;;;11.90;76.70;;;;;;5068050;28;20481;-72
2022/03/22 00:30:24;;;;;;;1.50;1.10;;;11.90;76.90;;;;;;5068708;28;20465;-73
2022/03/22 00:32:53;;;;;;;1.50;1.20;;;11.80;76.70;;;;;;5066603;28;20847;-72
2022/03/22 00:35:23;;;;;;;1.50;1.10;;;11.80;76.70;;;;;;5068721;28;20468;-73
2022/03/22 00:37:51;;;;;;;4.70;2.47;;;11.80;76.90;;;;;;5068315;28;20548;-72
2022/03/22 00:40:18;;;;;;;1.43;1.00;;;11.70;76.90;;;;;;5062947;28;20799;-72
2022/03/22 00:42:46;;;;;;;1.50;1.17;;;11.70;77.40;;;;;;5072851;28;20487;-73
2022/03/22 00:45:17;;;;;;;1.50;1.07;;;11.60;77.70;;;;;;5069220;28;20466;-72
2022/03/22 00:47:44;;;;;;;1.50;1.17;;;11.60;78.20;;;;;;5068126;28;20519;-72
2022/03/22 00:50:12;;;;;;;1.50;1.20;;;11.50;78.50;;;;;;5068564;28;20476;-73
2022/03/22 00:52:40;;;;;;;2.87;2.67;;;11.40;78.90;;;;;;5057878;28;21129;-72
2022/03/22 00:55:09;;;;;;;1.50;1.10;;;11.40;79.10;;;;;;5058382;28;20457;-72
2022/03/22 00:57:36;;;;;;;1.70;1.60;;;11.30;79.40;;;;;;5059969;28;20834;-73
2022/03/22 01:00:05;;;;;;;1.50;1.23;;;11.20;79.50;;;;;;5067441;28;20964;-72
2022/03/22 01:02:37;;;;;;;1.50;1.10;;;11.20;79.60;;;;;;5054247;28;20539;-72
2022/03/22 01:05:06;;;;;;;1.50;1.20;;;11.10;79.70;;;;;;5063832;28;20461;-72
2022/03/22 01:07:33;;;;;;;1.50;1.10;;;11.10;79.70;;;;;;5066449;28;20492;-73
2022/03/22 01:10:01;;;;;;;1.50;1.27;;;11.00;79.80;;;;;;5068894;28;20952;-72
2022/03/22 01:12:29;;;;;;;1.50;1.10;;;11.00;79.80;;;;;;5071089;28;20476;-73
2022/03/22 01:14:56;;;;;;;4.07;3.77;;;11.00;79.80;;;;;;5066572;28;20890;-73
2022/03/22 01:17:23;;;;;;;2.27;2.07;;;10.90;80.10;;;;;;5052301;28;20994;-73
2022/03/22 01:19:50;;;;;;;1.50;1.20;;;10.90;79.90;;;;;;5068021;28;20468;-72
2022/03/22 01:22:17;;;;;;;3.93;2.90;;;10.80;80.00;;;;;;5060382;28;20459;-72
2022/03/22 01:24:44;;;;;;;1.50;1.20;;;10.80;79.90;;;;;;5052045;28;20834;-73
2022/03/22 01:27:12;;;;;;;1.50;1.10;;;10.80;79.90;;;;;;5067849;28;20457;-72
2022/03/22 01:29:39;;;;;;;1.50;1.10;;;10.70;80.00;;;;;;5061877;28;21008;-72
2022/03/22 01:32:07;;;;;;;2.87;1.47;;;10.70;79.90;;;;;;5053556;28;20536;-72
2022/03/22 01:34:34;;;;;;;1.50;1.20;;;10.70;80.00;;;;;;5065132;28;20453;-72
2022/03/22 01:37:00;;;;;;;2.27;2.07;;;10.70;80.10;;;;;;5072066;28;20990;-72
2022/03/22 01:39:27;;;;;;;6.30;5.77;;;10.70;80.00;;;;;;5065763;28;20481;-73
2022/03/22 01:41:54;;;;;;;1.50;1.10;;;10.70;79.90;;;;;;5071978;28;20461;-73
2022/03/22 01:44:22;;;;;;;1.50;1.10;;;10.60;79.90;;;;;;5072660;28;20864;-72
2022/03/22 01:46:52;;;;;;;1.60;1.40;;;10.60;79.90;;;;;;5071742;28;20953;-72
2022/03/22 01:49:19;;;;;;;2.13;1.93;;;10.60;79.90;;;;;;5067075;28;20501;-73
2022/03/22 01:51:48;;;;;;;1.50;1.10;;;10.50;79.80;;;;;;5070733;28;20461;-73
2022/03/22 01:54:17;;;;;;;1.50;1.10;;;10.50;79.90;;;;;;5057856;28;20524;-73
2022/03/22 01:56:43;;;;;;;1.50;1.20;;;10.50;79.90;;;;;;5060552;28;20532;-72
2022/03/22 01:59:10;;;;;;;1.50;1.10;;;10.50;79.90;;;;;;5070704;28;20473;-73
2022/03/22 02:07:09;;;;;;;1.50;1.20;;;10.40;79.80;;;;;;5072365;28;20483;-73
2022/03/22 02:09:36;;;;;;;1.50;1.10;;;10.40;79.80;;;;;;5076282;28;20481;-73
2022/03/22 02:12:03;;;;;;;1.50;1.10;;;10.40;79.70;;;;;;5063262;28;20465;-72
2022/03/22 02:14:30;;;;;;;1.50;1.00;;;10.40;79.80;;;;;;5068556;28;20469;-73
2022/03/22 02:16:59;;;;;;;1.50;1.23;;;10.30;79.70;;;;;;5070649;28;20461;-73
2022/03/22 02:19:26;;;;;;;1.50;1.10;;;10.30;79.70;;;;;;5068354;28;20481;-73
2022/03/22 02:22:01;;;;;;;1.50;1.10;;;10.30;79.90;;;;;;5067311;28;20465;-73
2022/03/22 02:24:29;;;;;;;1.50;1.10;;;10.20;79.90;;;;;;5057185;28;20472;-72
2022/03/22 02:26:56;;;;;;;1.50;1.10;;;10.20;80.00;;;;;;5062960;28;20476;-73
2022/03/22 02:29:22;;;;;;;1.50;1.20;;;10.20;80.10;;;;;;5069588;28;20492;-73
2022/03/22 02:31:49;;;;;;;1.50;1.10;;;10.20;80.10;;;;;;5070296;28;20461;-73
2022/03/22 02:34:17;;;;;;;1.50;1.10;;;10.10;80.10;;;;;;5071209;28;20465;-72
2022/03/22 02:36:44;;;;;;;1.50;1.17;;;10.10;79.90;;;;;;5056183;28;20840;-73
2022/03/22 02:39:11;;;;;;;2.73;2.53;;;10.10;79.80;;;;;;5063244;28;20480;-73
2022/03/22 02:41:39;;;;;;;2.17;2.00;;;10.10;79.80;;;;;;5068825;28;20538;-73
2022/03/22 02:44:06;;;;;;;1.50;1.20;;;10.10;79.60;;;;;;5060850;28;21049;-73
2022/03/22 02:46:33;;;;;;;2.27;2.07;;;10.10;79.60;;;;;;5065808;28;20523;-72
2022/03/22 02:49:00;;;;;;;1.50;1.10;;;10.10;79.70;;;;;;5067084;28;20485;-74
2022/03/22 02:51:27;;;;;;;1.50;1.10;;;10.00;79.70;;;;;;5063419;28;20965;-73
2022/03/22 02:53:53;;;;;;;1.50;1.13;;;10.00;79.90;;;;;;5057766;28;20462;-74
2022/03/22 02:56:20;;;;;;;1.50;1.30;;;10.00;80.00;;;;;;5060715;28;20480;-74
2022/03/22 02:58:48;;;;;;;1.50;1.30;;;10.00;80.00;;;;;;5072665;28;20478;-71
2022/03/22 03:01:15;;;;;;;1.50;1.10;;;10.00;80.00;;;;;;5065217;28;20457;-71
2022/03/22 03:03:42;;;;;;;1.50;1.17;;;9.90;80.00;;;;;;5067202;28;20457;-71
2022/03/22 03:06:09;;;;;;;1.50;1.20;;;9.90;80.10;;;;;;5066781;28;20938;-71
2022/03/22 03:08:36;;;;;;;1.50;1.10;;;9.90;80.10;;;;;;5062897;28;20489;-71
2022/03/22 03:11:03;;;;;;;1.50;1.10;;;9.90;80.00;;;;;;5069764;28;20511;-72
2022/03/22 03:14:38;;;;;;;1.50;1.40;;;9.80;79.90;;;;;;5070377;28;20548;-72
2022/03/22 03:16:18;;;;;;;1.50;1.20;;;9.80;79.90;;;;;;5069748;28;20626;-72
2022/03/22 03:18:45;;;;;;;1.50;1.20;;;9.80;79.80;;;;;;5069524;28;20481;-71
2022/03/22 03:21:12;;;;;;;1.50;1.17;;;9.80;79.90;;;;;;5062531;28;20477;-72
2022/03/22 03:23:39;;;;;;;1.50;1.20;;;9.70;80.00;;;;;;5059131;28;20979;-71
2022/03/22 03:26:05;;;;;;;2.00;1.80;;;9.70;80.00;;;;;;5061846;28;20472;-71
2022/03/22 03:28:32;;;;;;;2.40;2.20;;;9.70;79.90;;;;;;5062884;28;21002;-71
2022/03/22 03:30:59;;;;;;;1.50;1.20;;;9.70;79.90;;;;;;5068588;28;20461;-72
2022/03/22 03:33:27;;;;;;;1.50;1.20;;;9.70;79.70;;;;;;5062435;28;20457;-71
2022/03/22 03:35:54;;;;;;;1.50;1.20;;;9.70;79.60;;;;;;5068718;28;20487;-72
2022/03/22 03:38:20;;;;;;;1.50;1.10;;;9.60;79.60;;;;;;5067602;28;20469;-71
2022/03/22 03:43:31;;;;;;;1.50;1.20;;;9.60;79.60;;;;;;5067006;28;20670;-71
2022/03/22 03:48:44;;;;;;;1.50;1.20;;;9.60;80.20;;;;;;5069332;28;20630;-71
2022/03/22 03:51:10;;;;;;;1.50;1.10;;;9.60;80.10;;;;;;5066901;28;20474;-71
2022/03/22 03:53:37;;;;;;;1.50;1.20;;;9.50;80.30;;;;;;5057394;28;20462;-71
2022/03/22 03:56:04;;;;;;;1.50;1.20;;;9.50;80.40;;;;;;5052921;28;20835;-72
2022/03/22 03:58:31;;;;;;;1.50;1.20;;;9.50;80.30;;;;;;5078029;28;20486;-72
2022/03/22 04:00:58;;;;;;;1.63;1.53;;;9.50;80.20;;;;;;5061429;28;20732;-72
2022/03/22 04:03:26;;;;;;;1.50;1.10;;;9.40;80.20;;;;;;5069140;28;20545;-72
2022/03/22 04:05:54;;;;;;;1.50;1.20;;;9.40;80.20;;;;;;5068466;28;20468;-72
2022/03/22 04:08:21;;;;;;;3.90;3.63;;;9.40;80.30;;;;;;5066162;28;20478;-72
2022/03/22 04:10:47;;;;;;;1.50;1.27;;;9.40;80.30;;;;;;5064701;28;20814;-72
2022/03/22 04:13:14;;;;;;;1.50;1.20;;;9.30;80.10;;;;;;5067678;28;20462;-72
2022/03/22 04:15:41;;;;;;;2.30;2.10;;;9.30;80.00;;;;;;5068665;28;21061;-72
2022/03/22 04:18:08;;;;;;;1.50;1.20;;;9.30;80.00;;;;;;5064817;28;20488;-72
2022/03/22 04:20:34;;;;;;;3.00;1.90;;;9.20;80.10;;;;;;5068107;28;20457;-72
2022/03/22 04:23:03;;;;;;;1.50;1.20;;;9.20;80.00;;;;;;5059969;28;20474;-74
2022/03/22 04:25:29;;;;;;;1.50;1.20;;;9.20;80.00;;;;;;5060295;28;20484;-74
2022/03/22 04:33:25;;;;;;;1.70;1.50;;;9.10;79.70;;;;;;5062423;28;20465;-71
2022/03/22 04:35:52;;;;;;;1.50;1.30;;;9.10;79.50;;;;;;5067591;28;20461;-73
2022/03/22 04:38:20;;;;;;;1.50;1.30;;;9.10;79.50;;;;;;5066912;28;21001;-73
2022/03/22 04:40:47;;;;;;;1.50;1.20;;;9.10;79.70;;;;;;5066123;28;20458;-73
2022/03/22 04:43:14;;;;;;;1.50;1.20;;;9.10;79.70;;;;;;5061842;28;20866;-73
2022/03/22 04:45:41;;;;;;;1.50;1.20;;;9.00;79.90;;;;;;5057656;28;20458;-73
2022/03/22 04:48:08;;;;;;;1.50;1.10;;;8.90;80.00;;;;;;5072478;28;21007;-73
2022/03/22 04:50:35;;;;;;;1.50;1.20;;;8.90;80.40;;;;;;5066846;28;20496;-73
2022/03/22 04:58:31;;;;;;;1.50;1.20;;;8.70;80.70;;;;;;5030292;28;20489;-73
2022/03/22 05:00:58;;;;;;;1.50;1.20;;;8.60;80.50;;;;;;5056125;28;20907;-74
2022/03/22 05:03:25;;;;;;;1.50;1.30;;;8.60;80.60;;;;;;5075719;28;20453;-73
2022/03/22 05:08:36;;;;;;;1.50;1.30;;;8.60;80.40;;;;;;5068377;28;20550;-73
2022/03/22 05:11:04;;;;;;;1.50;1.20;;;8.60;80.70;;;;;;5067565;28;20839;-73
2022/03/22 05:13:31;;;;;;;2.07;1.93;;;8.60;80.40;;;;;;5063296;28;20458;-73
2022/03/22 05:15:58;;;;;;;1.50;1.27;;;8.60;80.40;;;;;;5064351;28;20458;-73
2022/03/22 05:18:26;;;;;;;1.50;1.20;;;8.60;80.40;;;;;;5064728;28;20490;-73
2022/03/22 05:20:53;;;;;;;1.50;1.30;;;8.60;80.20;;;;;;5052235;28;20457;-74
2022/03/22 05:23:20;;;;;;;1.50;1.20;;;8.60;80.40;;;;;;5082259;28;20465;-73
2022/03/22 05:25:47;;;;;;;1.50;1.20;;;8.60;80.50;;;;;;5061429;28;20461;-73
2022/03/22 05:28:15;;;;;;;1.50;1.20;;;8.60;80.50;;;;;;5062112;28;20501;-73
2022/03/22 05:30:41;;;;;;;1.50;1.30;;;8.60;80.60;;;;;;5065089;28;20870;-73
2022/03/22 05:33:08;;;;;;;1.50;1.20;;;8.60;80.50;;;;;;5071776;28;20508;-73
2022/03/22 05:35:35;;;;;;;1.50;1.30;;;8.60;80.40;;;;;;5067515;28;20476;-73
2022/03/22 05:38:02;;;;;;;1.50;1.20;;;8.60;80.40;;;;;;5071724;28;20488;-73
2022/03/22 05:40:29;;;;;;;1.50;1.40;;;8.60;80.50;;;;;;5065465;28;20953;-73
2022/03/22 05:42:56;;;;;;;1.50;1.20;;;8.60;80.30;;;;;;5061053;28;20786;-73
2022/03/22 05:45:26;;;;;;;1.50;1.20;;;8.70;80.00;;;;;;5067839;28;20464;-74
2022/03/22 05:47:53;;;;;;;1.50;1.20;;;8.70;80.10;;;;;;5063952;28;20486;-75
2022/03/22 05:50:20;;;;;;;3.93;3.73;;;8.70;79.80;;;;;;5066508;28;20490;-74
2022/03/22 05:52:49;;;;;;;1.50;1.20;;;8.70;79.90;;;;;;5070072;28;20487;-74
2022/03/22 05:55:16;;;;;;;1.50;1.20;;;8.80;79.40;;;;;;5060964;28;20462;-74
2022/03/22 05:57:43;;;;;;;1.50;1.20;;;8.80;79.10;;;;;;5066506;28;21067;-74
2022/03/22 06:00:11;;;;;;;1.50;1.10;;;8.80;78.40;;;;;;5065575;28;20453;-74
2022/03/22 06:02:40;;;;;;;1.50;1.20;;;8.90;78.10;;;;;;5058533;28;20470;-75
2022/03/22 06:05:08;;;;;;;1.50;1.20;;;8.90;77.90;;;;;;5059498;28;20972;-75
2022/03/22 06:07:35;;;;;;;1.50;1.40;;;9.00;77.60;;;;;;5067796;28;20500;-73
2022/03/22 06:10:02;;;;;;;1.50;1.30;;;9.00;77.20;;;;;;5066123;28;20488;-73
2022/03/22 06:12:38;;;;;;;1.50;1.27;;;9.10;77.20;;;;;;5062532;28;20556;-73
2022/03/22 06:15:18;;;;;;;1.50;1.30;;;9.20;77.00;;;;;;5067085;28;20551;-73
2022/03/22 06:17:47;;;;;;;2.90;2.70;;;9.20;77.00;;;;;;5073801;28;20793;-73
2022/03/22 06:20:14;;;;;;;1.50;1.13;;;9.30;77.00;;;;;;5069611;28;20456;-74
2022/03/22 06:22:41;;;;;;;1.50;1.20;;;9.30;77.10;;;;;;5068469;28;20849;-73
2022/03/22 06:25:09;;;;;;;1.50;1.10;;;9.40;77.00;;;;;;5067037;28;20472;-73
2022/03/22 06:27:36;;;;;;;1.63;1.53;;;9.50;76.80;;;;;;5066969;28;20980;-74
2022/03/22 06:30:04;;;;;;;1.50;1.10;;;9.50;76.50;;;;;;5069715;28;20829;-73
2022/03/22 06:32:31;;;;;;;1.50;1.20;;;9.60;76.00;;;;;;5072221;28;20506;-73
2022/03/22 06:34:59;;;;;;;1.50;1.20;;;9.70;75.80;;;;;;5071557;28;20462;-74
2022/03/22 06:37:26;;;;;;;1.50;1.20;;;9.90;75.40;;;;;;5069871;28;20460;-73
2022/03/22 06:39:53;;;;;;;1.50;1.20;;;10.00;74.80;;;;;;5071316;28;20652;-73
2022/03/22 06:42:20;;;;;;;1.50;1.20;;;10.10;74.50;;;;;;5065883;28;20470;-73
2022/03/22 06:44:47;;;;;;;1.50;1.20;;;10.10;74.50;;;;;;5058093;28;20469;-74
2022/03/22 06:47:14;;;;;;;1.50;1.20;;;10.30;73.90;;;;;;5060994;28;20476;-73
2022/03/22 06:49:41;;;;;;;1.50;1.10;;;10.40;74.10;;;;;;5064138;28;20521;-73
2022/03/22 06:52:09;;;;;;;1.50;1.40;;;10.50;74.00;;;;;;5064110;28;20508;-73
2022/03/22 06:54:36;;;;;;;1.50;1.20;;;10.60;73.90;;;;;;5051892;28;21158;-74
2022/03/22 06:57:03;;;;;;;1.60;1.40;;;10.70;73.50;;;;;;5054942;28;20516;-75
2022/03/22 06:59:29;;;;;;;1.50;1.10;;;10.70;73.40;;;;;;5064904;28;20481;-74
2022/03/22 07:01:56;;;;;;;1.50;1.30;;;10.80;72.70;;;;;;5065468;28;20896;-71
2022/03/22 07:04:23;;;;;;;1.60;1.20;;;10.80;72.90;;;;;;5065356;28;20973;-75
2022/03/22 07:06:50;;;;;;;1.50;1.17;;;10.90;73.10;;;;;;5067947;28;20472;-79
2022/03/22 07:09:18;;;;;;;1.50;1.10;;;11.00;73.30;;;;;;5063650;28;20500;-74
2022/03/22 07:11:49;;;;;;;1.77;1.67;;;11.20;73.10;;;;;;5058252;28;20507;-73
2022/03/22 07:14:17;;;;;;;1.50;1.10;;;11.20;72.30;;;;;;5074451;28;20477;-77
2022/03/22 07:16:44;;;;;;;1.83;1.73;;;11.30;72.30;;;;;;5065411;28;20667;-76
2022/03/22 07:19:10;;;;;;;5.00;3.17;;;11.40;72.30;;;;;;5066587;28;20485;-72
2022/03/22 07:21:37;;;;;;;1.50;1.10;;;11.60;72.10;;;;;;5062965;28;20815;-71
2022/03/22 07:24:05;;;;;;;1.50;1.10;;;11.80;71.50;;;;;;5050264;28;20489;-75
2022/03/22 07:26:33;;;;;;;5.03;4.73;;;11.90;71.00;;;;;;5059749;28;20492;-72
2022/03/22 07:29:00;;;;;;;1.53;1.27;;;12.00;71.00;;;;;;5069592;28;20543;-76
2022/03/22 07:31:27;;;;;;;1.50;1.20;;;12.10;70.60;;;;;;5060570;28;20573;-71
2022/03/22 07:33:54;;;;;;;1.50;1.03;;;12.20;70.60;;;;;;5065854;28;20462;-72
2022/03/22 07:36:21;;;;;;;2.17;1.57;;;12.30;69.80;;;;;;5062277;28;20488;-71
2022/03/22 07:38:48;;;;;;;1.60;1.43;;;12.50;69.70;;;;;;5065512;28;20576;-72
2022/03/22 07:41:16;;;;;;;1.50;1.10;;;12.70;69.10;;;;;;5064761;28;20466;-72
2022/03/22 07:43:44;;;;;;;3.93;3.73;;;12.80;68.60;;;;;;5066105;28;20463;-71
2022/03/22 07:46:11;;;;;;;1.50;1.10;;;12.90;68.20;;;;;;5066350;28;20567;-73
2022/03/22 07:48:40;;;;;;;2.33;2.13;;;12.90;66.80;;;;;;5057481;28;20509;-75
2022/03/22 07:53:51;;;;;;;1.50;1.10;;;12.90;67.10;;;;;;5057443;28;20459;-73
2022/03/22 07:56:19;;;;;;;3.73;3.43;;;13.00;67.30;;;;;;5064758;28;20519;-75
2022/03/22 07:58:47;;;;;;;1.50;1.10;;;13.00;67.40;;;;;;5061930;28;20509;-77
2022/03/22 08:01:14;;;;;;;2.40;2.20;;;13.10;67.20;;;;;;5064292;28;20900;-71
2022/03/22 08:03:41;;;;;;;1.50;1.10;;;13.30;66.90;;;;;;5068291;28;20461;-74
2022/03/22 08:06:08;;;;;;;1.50;1.10;;;13.40;66.40;;;;;;5060890;28;20537;-71
2022/03/22 08:08:37;;;;;;;1.50;1.10;;;13.60;66.40;;;;;;5063757;28;20477;-72
2022/03/22 08:11:06;;;;;;;3.07;2.87;;;13.80;65.80;;;;;;5061829;28;20497;-73
2022/03/22 08:13:34;;;;;;;1.50;1.10;;;14.00;64.60;;;;;;5051622;28;21112;-72
2022/03/22 08:16:03;;;;;;;2.50;2.30;;;14.20;64.60;;;;;;5046244;28;20950;-73
2022/03/22 08:18:30;;;;;;;1.43;1.00;;;14.20;64.10;;;;;;5062090;28;21024;-72
2022/03/22 08:20:57;;;;;;;1.50;1.10;;;14.20;63.00;;;;;;5059467;28;20500;-73
2022/03/22 08:23:24;;;;;;;2.60;2.40;;;14.30;63.70;;;;;;5060162;28;20468;-71
2022/03/22 08:25:51;;;;;;;1.47;1.00;;;14.30;62.70;;;;;;5057253;28;20461;-73
2022/03/22 08:28:20;;;;;;;3.77;3.57;;;14.40;63.20;;;;;;5062813;28;20504;-71
2022/03/22 08:30:47;;;;;;;1.50;1.13;;;14.50;62.50;;;;;;5065913;28;20496;-72
2022/03/22 08:33:15;;;;;;;1.50;1.00;;;14.50;62.00;;;;;;5065761;28;20465;-73
2022/03/22 08:35:45;;;;;;;1.50;1.10;;;14.60;61.80;;;;;;5066419;28;20465;-74
2022/03/22 08:38:13;;;;;;;1.60;1.50;;;14.70;61.90;;;;;;5063927;28;20509;-72
2022/03/22 08:40:40;;;;;;;1.50;1.00;;;14.90;61.90;;;;;;5060613;28;20580;-73
2022/03/22 08:43:07;;;;;;;1.50;1.00;;;15.00;62.10;;;;;;5066329;28;20465;-73
2022/03/22 08:45:35;;;;;;;1.50;1.03;;;15.20;60.80;;;;;;5060765;28;20527;-73
2022/03/22 08:48:09;;;;;;;3.00;2.80;;;15.30;61.20;;;;;;5059204;28;20497;-72
2022/03/22 08:50:38;;;;;;;1.50;1.10;;;15.50;61.30;;;;;;5060513;28;20597;-72
2022/03/22 08:53:06;;;;;;;1.70;1.10;;;15.60;60.80;;;;;;5060617;28;20493;-72
2022/03/22 08:55:34;;;;;;;1.50;1.00;;;15.80;60.40;;;;;;5060530;28;20469;-74
2022/03/22 08:58:05;;;;;;;2.17;1.97;;;15.80;60.40;;;;;;5058849;28;20654;-72
2022/03/22 09:00:33;;;;;;;1.50;0.97;;;16.00;60.20;;;;;;5060156;28;20548;-73
2022/03/22 09:03:01;;;;;;;1.50;1.13;;;16.20;60.00;;;;;;5064323;28;20989;-73
2022/03/22 09:08:14;;;;;;;1.70;1.50;;;16.60;59.30;;;;;;5058099;28;20564;-75
2022/03/22 09:10:41;;;;;;;1.80;1.60;;;16.60;58.30;;;;;;5062631;28;20481;-73
2022/03/22 09:13:09;;;;;;;2.67;2.47;;;16.80;57.50;;;;;;5057699;28;20469;-73
2022/03/22 09:15:39;;;;;;;2.07;1.87;;;16.80;57.70;;;;;;5063033;28;20468;-73
2022/03/22 09:18:12;;;;;;;1.50;1.10;;;16.80;57.50;;;;;;5056867;28;20484;-72
2022/03/22 09:20:39;;;;;;;2.37;2.03;;;16.80;57.00;;;;;;5055142;28;20577;-73
2022/03/22 09:23:06;;;;;;;1.43;0.90;;;16.90;57.20;;;;;;5046042;28;21032;-73
2022/03/22 09:25:34;;;;;;;1.47;0.90;;;17.00;57.40;;;;;;5053780;28;20857;-74
2022/03/22 09:28:01;;;;;;;2.80;1.80;;;17.20;56.80;;;;;;5062208;28;20790;-74
2022/03/22 09:30:28;;;;;;;1.50;1.10;;;17.40;57.20;;;;;;5064357;28;20485;-75
2022/03/22 09:32:57;;;;;;;2.90;2.60;;;17.60;57.20;;;;;;5064513;28;20876;-73
2022/03/22 09:35:25;;;;;;;1.50;0.90;;;17.80;56.40;;;;;;5056084;28;20478;-73
2022/03/22 09:37:52;;;;;;;1.50;0.90;;;17.70;55.90;;;;;;5064552;28;20520;-73
2022/03/22 09:40:20;;;;;;;1.50;0.90;;;17.80;55.80;;;;;;5061842;28;20475;-73
2022/03/22 09:42:49;;;;;;;3.40;2.40;;;17.90;56.30;;;;;;5064116;28;20511;-73
2022/03/22 09:45:18;;;;;;;1.50;1.20;;;18.00;55.60;;;;;;5057871;28;20492;-73
2022/03/22 09:54:29;;;;;;;1.47;0.90;;;18.70;54.50;;;;;;5061101;28;20453;-74
2022/03/22 09:56:57;;;;;;;2.10;1.90;;;18.70;54.10;;;;;;5069889;28;20465;-74
2022/03/22 09:59:25;;;;;;;2.00;1.43;;;18.90;54.30;;;;;;5056542;28;20562;-72
2022/03/22 10:01:52;;;;;;;1.70;1.43;;;19.00;53.60;;;;;;5066160;28;20730;-73
2022/03/22 10:04:19;;;;;;;1.50;1.00;;;19.10;53.00;;;;;;5062163;28;20470;-70
2022/03/22 10:06:54;;;;;;;2.70;2.50;;;19.30;53.10;;;;;;5068108;28;20497;-71
2022/03/22 10:09:29;;;;;;;1.50;0.90;;;19.40;52.30;;;;;;5066789;28;20480;-72
2022/03/22 10:11:57;;;;;;;1.47;0.90;;;19.50;52.40;;;;;;5057243;28;20530;-71
2022/03/22 10:14:35;;;;;;;1.50;1.00;;;19.50;51.80;;;;;;5061585;28;20462;-72
2022/03/22 10:17:10;;;;;;;1.47;0.90;;;19.60;52.30;;;;;;5061009;28;20465;-72
2022/03/22 10:19:43;;;;;;;1.50;1.00;;;19.70;51.20;;;;;;5065109;28;20961;-71
2022/03/22 10:22:11;;;;;;;3.83;1.83;;;19.80;51.00;;;;;;5061381;28;20462;-73
2022/03/22 10:24:48;;;;;;;1.90;1.10;;;19.80;51.20;;;;;;5056183;28;20478;-76
2022/03/22 10:27:22;;;;;;;1.50;0.90;;;20.00;52.10;;;;;;5063854;28;20544;-72
2022/03/22 10:29:51;;;;;;;1.50;1.10;;;20.10;51.90;;;;;;5061114;28;20461;-74
2022/03/22 10:32:19;;;;;;;1.50;0.90;;;20.20;52.30;;;;;;5075979;22;21156;-72
2022/03/22 10:34:46;;;;;;;1.43;0.90;;;20.30;51.00;;;;;;5042644;28;20541;-72
2022/03/22 10:37:13;;;;;;;1.50;1.00;;;20.50;51.50;;;;;;5045339;28;20469;-70
2022/03/22 10:39:42;;;;;;;1.50;1.10;;;20.50;49.50;;;;;;5047306;28;20465;-71
2022/03/22 10:42:11;;;;;;;1.43;0.90;;;20.50;49.80;;;;;;5038691;28;20557;-72
2022/03/22 10:44:39;;;;;;;1.50;1.17;;;20.40;49.70;;;;;;5040377;28;20903;-72
2022/03/22 10:47:08;;;;;;;1.50;1.10;;;20.40;50.80;;;;;;5047853;28;20470;-72
2022/03/22 10:49:35;;;;;;;1.50;1.10;;;20.40;49.10;;;;;;5040581;28;20489;-70
2022/03/22 10:52:02;;;;;;;4.03;1.70;;;20.30;49.80;;;;;;5044965;28;20498;-71
2022/03/22 10:54:29;;;;;;;1.43;0.90;;;20.40;49.60;;;;;;5045885;28;20458;-71
2022/03/22 10:56:57;;;;;;;3.80;3.50;;;20.40;48.70;;;;;;5043256;28;20477;-71
2022/03/22 10:59:26;;;;;;;1.50;1.00;;;20.20;48.50;;;;;;5047236;28;20470;-71
2022/03/22 11:01:55;;;;;;;1.50;0.90;;;20.30;49.40;;;;;;5040348;28;20547;-71
2022/03/22 11:04:24;;;;;;;1.50;1.10;;;20.30;49.90;;;;;;5042377;28;20466;-70
2022/03/22 11:06:52;;;;;;;1.50;0.90;;;20.40;49.50;;;;;;5041789;28;20470;-72
2022/03/22 11:09:22;;;;;;;1.50;0.90;;;20.50;49.80;;;;;;5042445;28;20454;-71
2022/03/22 11:11:50;;;;;;;1.93;1.73;;;20.70;50.20;;;;;;5042829;28;20976;-70
2022/03/22 11:14:18;;;;;;;1.50;0.93;;;21.00;50.00;;;;;;5042914;28;20885;-73
2022/03/22 11:16:47;;;;;;;1.43;0.90;;;21.10;49.10;;;;;;5043779;28;20508;-70
2022/03/22 11:19:17;;;;;;;1.43;0.90;;;21.30;49.80;;;;;;5040567;28;20471;-70
2022/03/22 11:21:47;;;;;;;1.50;1.10;;;21.50;49.20;;;;;;5039919;28;20593;-70
2022/03/22 11:24:15;;;;;;;1.50;0.90;;;21.60;48.30;;;;;;5045851;28;20820;-71
2022/03/22 11:26:43;;;;;;;1.50;0.90;;;21.50;48.60;;;;;;5043610;28;20458;-72
2022/03/22 11:29:12;;;;;;;1.50;0.90;;;21.80;50.30;;;;;;5046750;28;20956;-73
2022/03/22 11:31:42;;;;;;;1.60;1.00;;;22.00;48.10;;;;;;5045243;28;20881;-71
2022/03/22 11:34:09;;;;;;;1.60;1.10;;;22.00;48.60;;;;;;5045757;28;20845;-71
2022/03/22 11:36:43;;;;;;;1.50;0.90;;;22.10;50.50;;;;;;5046247;28;20998;-71
2022/03/22 11:39:15;;;;;;;2.23;2.03;;;22.10;49.40;;;;;;5046765;28;20470;-71
2022/03/22 11:44:36;;;;;;;1.40;0.87;;;22.20;47.40;;;;;;5045716;28;20457;-74
2022/03/22 11:47:06;;;;;;;1.47;0.90;;;22.10;47.40;;;;;;5046227;28;20459;-71
2022/03/22 11:49:49;;;;;;;1.50;0.90;;;22.20;49.60;;;;;;5044667;28;20927;-71
2022/03/22 11:52:16;;;;;;;1.47;0.90;;;22.60;49.80;;;;;;5040125;28;20498;-71
2022/03/22 11:54:55;;;;;;;1.50;0.90;;;22.90;50.40;;;;;;5045082;28;20869;-71
2022/03/22 11:57:22;;;;;;;1.43;0.90;;;23.10;49.60;;;;;;5043553;28;20466;-71
2022/03/22 11:59:52;;;;;;;2.80;1.57;;;23.20;46.90;;;;;;5044803;28;20470;-73
2022/03/22 12:02:20;;;;;;;1.50;0.90;;;23.10;46.80;;;;;;5040828;28;20502;-71
2022/03/22 12:04:51;;;;;;;1.43;0.90;;;22.90;46.90;;;;;;5043982;28;20469;-72
2022/03/22 12:07:23;;;;;;;1.43;0.90;;;22.80;47.60;;;;;;5043720;28;20929;-71
2022/03/22 12:09:52;;;;;;;1.47;0.90;;;22.80;46.90;;;;;;5038903;28;20800;-72
2022/03/22 12:12:18;;;;;;;1.47;0.90;;;23.00;47.30;;;;;;5044592;28;20497;-72
2022/03/22 12:14:49;;;;;;;1.60;1.23;;;23.10;48.50;;;;;;5045058;28;20477;-71
2022/03/22 12:17:17;;;;;;;1.60;1.20;;;23.00;45.90;;;;;;5045634;28;20470;-71
2022/03/22 12:19:43;;;;;;;1.50;1.00;;;22.80;47.10;;;;;;5044676;28;20864;-72
2022/03/22 12:22:10;;;;;;;1.70;1.30;;;22.70;48.00;;;;;;5044912;28;20477;-72
2022/03/22 12:24:37;;;;;;;1.50;0.90;;;22.70;49.40;;;;;;5045290;28;21012;-71
2022/03/22 12:27:09;;;;;;;1.50;0.90;;;22.90;48.30;;;;;;5045264;28;20830;-71
2022/03/22 12:29:40;;;;;;;1.50;1.00;;;23.10;49.50;;;;;;5044869;28;20466;-71
2022/03/22 12:32:13;;;;;;;1.50;1.07;;;23.10;48.90;;;;;;5043330;28;20497;-71
2022/03/22 12:34:41;;;;;;;1.43;0.90;;;23.30;48.30;;;;;;5044936;28;20462;-71
2022/03/22 12:37:08;;;;;;;1.47;0.87;;;23.40;46.80;;;;;;5041784;28;20565;-72
2022/03/22 12:39:37;;;;;;;1.47;0.90;;;23.40;47.90;;;;;;5039137;28;20569;-71
2022/03/22 12:42:07;;;;;;;1.47;0.80;;;23.60;49.50;;;;;;5037546;28;20686;-71
2022/03/22 12:44:35;;;;;;;1.47;0.90;;;23.70;47.80;;;;;;5040472;28;20997;-71
2022/03/22 12:47:02;;;;;;;1.50;1.00;;;23.80;46.50;;;;;;5041038;28;20749;-71
2022/03/22 12:49:29;;;;;;;1.43;0.80;;;23.80;47.10;;;;;;5038944;28;20585;-71
2022/03/22 12:51:56;;;;;;;1.50;0.80;;;23.60;46.80;;;;;;5038520;28;20500;-71
2022/03/22 12:54:23;;;;;;;1.90;1.67;;;23.40;45.60;;;;;;5040120;28;20458;-72
2022/03/22 12:56:51;;;;;;;1.47;0.90;;;23.20;49.70;;;;;;5040281;28;20470;-71
2022/03/22 12:59:23;;;;;;;1.47;0.90;;;23.30;48.70;;;;;;5042167;28;20462;-72
2022/03/22 13:01:56;;;;;;;1.50;0.90;;;23.40;47.70;;;;;;5041325;28;20555;-71
2022/03/22 13:04:26;;;;;;;1.70;1.00;;;23.40;47.40;;;;;;5042319;28;20962;-72
2022/03/22 13:06:59;;;;;;;1.47;0.90;;;23.30;48.00;;;;;;5041395;28;20569;-72
2022/03/22 13:12:12;;;;;;;1.43;0.80;;;23.30;48.90;;;;;;5035966;28;20477;-72
2022/03/22 13:17:27;;;;;;;1.43;0.90;;;23.60;48.80;;;;;;5042002;28;20504;-71
2022/03/22 13:19:54;;;;;;;1.47;0.80;;;23.70;50.10;;;;;;5040038;28;20512;-71
2022/03/22 13:22:21;;;;;;;1.50;0.90;;;23.90;49.20;;;;;;5039846;28;20862;-71
2022/03/22 13:24:48;;;;;;;1.47;0.83;;;24.10;49.40;;;;;;5042144;28;20476;-72
2022/03/22 13:27:17;;;;;;;1.50;0.90;;;24.30;49.30;;;;;;5043917;28;20508;-71
2022/03/22 13:29:45;;;;;;;1.50;0.90;;;24.20;48.10;;;;;;5044937;28;20868;-71
2022/03/22 13:32:14;;;;;;;1.50;1.00;;;24.20;48.20;;;;;;5043699;28;20999;-72
2022/03/22 13:34:43;;;;;;;1.47;0.90;;;24.20;47.90;;;;;;5042392;28;20466;-72
2022/03/22 13:37:12;;;;;;;1.50;1.00;;;24.20;48.40;;;;;;5045380;28;20470;-72
2022/03/22 13:39:41;;;;;;;1.50;0.90;;;24.20;47.50;;;;;;5045658;28;20470;-72